Tallinn, Estonia

10:45 PM EET on November 27, 2014 (GMT +0200)
Roheline, Nomme | Change Station
CLOSE
Current Station
Personal Weather Station
Location: Tallinn, HARJUMAA
Elevation: 187 ft
Nearby Weather Stations

Elev 187 ft 59.38 °N, 24.69 °E | Updated 4 minutes ago

Light Snow
Light Snow Mist
32.2 °F
Feels Like 29 °F
N
3.8
Wind Variable Wind from SE
Gusts 4.5 mph

Today
High -- | Low -- °F
--% Chance of Precip.
Yesterday
High -- | Low -- °F
Precip. -- in
8:42 AM 3:34 PM
Waxing Crescent, 32% visible
Pressure 30.39 in
Visibility 3.1 miles
Clouds Overcast 3300 ft
Windchill 29 °F
Dew Point 31 °F
Humidity 94%
Rainfall 0.00 in
Snow Depth Not available.
UV 0 out of 12
Pollen Not available.
Air Quality Not available.
Flu Activity Not available.
METAR EETN 272020Z 18003KT 5000 -SN BR OVC033 M00/M01 Q1029 R08/31//95 NOSIG

More Conditions Fewer Conditions

Pressure 30.39 in
Visibility 3.1 miles
Clouds Overcast 3300 ft
Windchill 29 °F
Dew Point 31 °F
Humidity 94%
Rainfall 0.00 in
Snow Depth Not available.
UV 0 out of 12
Pollen Not available.
Air Quality Not available.
Flu Activity Not available.
METAR EETN 272020Z 18003KT 5000 -SN BR OVC033 M00/M01 Q1029 R08/31//95 NOSIG

More Conditions Fewer Conditions

10-Day Weather Forecast

Almanac

Astronomy

Nov. 27, 2014 Rise Set
Actual Time
Civil Twilight
Nautical Twilight
Astronomical Twilight
Moon
Length of Visible Light
Length of Day
Tomorrow will be .
, % of the Moon is Illuminated

Today's Extremes

Country Highs Country Lows

Community

WunderPhotos

Upload Photos

1,774,100 photos uploaded!

WunderBlogs® & News

Nearby

Air Quality

  Air Quality AQ Index Pollutant
Not available.

Snow Depth

Station Depth Elevation

Earthquake Activity

City Distance Mag. Time & Date
Minimum magnitude displayed is 2.5.

Coastal Water Temperatures

Place Temperature

Nearby Weather Stations